Ocean State — WDB4601 — position and weather

sailwx.info

Track history (hours):
 
Tides and Currents Weather Stations Pressure Air Temp Water Temp Dewpoint Dewpoint Depression Visibility Wind Speed Wind Dir Waves Ship Positions

Ocean State

Owner: New England Fast Ferry Company LLC, BOSTON, MA. More information available from US FCC via Universal Licensing System and Coast Guard Vessel Documentation Center.

Last reported at 2017-Oct-02 14:50 UTC. Time now 2017-Dec-12 16:15 UTC.
Position N 41°09' W 072°36'.
Warning: this ship's position is months out of date.

Length 21 m.

Type: Passenger vessel. MMSI: 366900190.

Date/timePositionNaut miles runAvg speedWind from/ knotsBaromVisibWave heightAir tempDewpointWater temp
2017-Oct-02 14:50N 41°09' W 072°36'823.5
2017-Oct-02 14:30N 41°11' W 072°26'5621.7
2017-Oct-02 11:57N 41°40' W 071°22'7 0.6
2017-Oct-02 00:58N 41°47' W 071°22'5 2.3
2017-Oct-01 22:51N 41°42' W 071°20'5 5.7
2017-Oct-01 21:59N 41°47' W 071°22'5 2.3
2017-Oct-01 19:52N 41°42' W 071°20'5 5.4
2017-Oct-01 18:57N 41°47' W 071°22'2 1.1
2017-Oct-01 16:50N 41°44' W 071°22'2 2.8
2017-Oct-01 15:58N 41°47' W 071°22'6 2.7
2017-Oct-01 13:56N 41°42' W 071°19'5 0.5
2017-Oct-01 03:44N 41°47' W 071°22'522.1
2017-Oct-01 03:30N 41°42' W 071°20'1 0.0
2017-Sep-30 01:54N 41°41' W 071°20'5 5.9
2017-Sep-30 00:58N 41°47' W 071°22'5 2.4
2017-Sep-29 22:54N 41°42' W 071°20'5 5.5
2017-Sep-29 22:01N 41°46' W 071°22'027.6
2017-Sep-29 22:00N 41°46' W 071°22'5 2.5
2017-Sep-29 19:57N 41°42' W 071°19'5 5.6
2017-Sep-29 19:01N 41°46' W 071°22'024.4
2017-Sep-29 19:00N 41°46' W 071°22'5 2.7
2017-Sep-29 17:03N 41°42' W 071°19'226.7
2017-Sep-29 16:58N 41°43' W 071°21'3 3.6
2017-Sep-29 16:01N 41°46' W 071°22'024.4
2017-Sep-29 16:00N 41°46' W 071°22'5 2.5
2017-Sep-29 14:00N 41°42' W 071°19'5 0.4
2017-Sep-29 01:00N 41°47' W 071°22'5 2.3
2017-Sep-28 22:53N 41°42' W 071°20'5 5.6
2017-Sep-28 22:01N 41°47' W 071°22'023.8
2017-Sep-28 22:00N 41°46' W 071°22'5 2.6
2017-Sep-28 19:59N 41°42' W 071°19'6 6.1
2017-Sep-28 19:03N 41°47' W 071°22'119.2
2017-Sep-28 19:00N 41°46' W 071°23'5 2.4
2017-Sep-28 17:00N 41°41' W 071°19'5 5.5
2017-Sep-28 16:02N 41°46' W 071°22'020.4
2017-Sep-28 16:00N 41°46' W 071°23'5 2.3
2017-Sep-28 13:57N 41°42' W 071°19'5 0.4
2017-Sep-28 00:58N 41°47' W 071°22'5 2.6
2017-Sep-27 22:55N 41°42' W 071°20'5 5.8
2017-Sep-27 22:01N 41°47' W 071°22'011.8
2017-Sep-27 22:00N 41°46' W 071°22'5 2.4
2017-Sep-27 19:56N 41°42' W 071°20'3 2.8
2017-Sep-27 18:53N 41°44' W 071°22'3 1.7
2017-Sep-27 16:55N 41°42' W 071°19'5 5.3
2017-Sep-27 15:55N 41°47' W 071°22'6 2.8
2017-Sep-27 13:55N 41°42' W 071°19'6 0.4
2017-Sep-27 01:01N 41°47' W 071°22'012.2
2017-Sep-27 01:00N 41°46' W 071°22'5 2.6
2017-Sep-26 22:57N 41°41' W 071°20'5 5.9
2017-Sep-26 22:01N 41°47' W 071°22'016.6
2017-Sep-26 22:00N 41°46' W 071°22'7 3.3
2017-Sep-26 20:00N 41°40' W 071°19'7 7.3
2017-Sep-26 19:00N 41°47' W 071°23'6 2.9
2017-Sep-26 16:56N 41°42' W 071°19'6 5.6
2017-Sep-26 15:57N 41°47' W 071°22'6 2.8
2017-Sep-26 13:57N 41°42' W 071°19'6 0.4
2017-Sep-26 00:58N 41°47' W 071°22'7 3.5
2017-Sep-25 22:58N 41°40' W 071°19'7 7.5
2017-Sep-25 22:02N 41°47' W 071°22'018.4
2017-Sep-25 22:00N 41°46' W 071°22'5 2.4
2017-Sep-25 19:57N 41°42' W 071°20'6 7.7
2017-Sep-25 19:07N 41°48' W 071°23'319.8
2017-Sep-25 18:59N 41°45' W 071°22'2 0.6
2017-Sep-25 16:01N 41°47' W 071°22'021.8
2017-Sep-25 16:00N 41°46' W 071°22'5 2.7
2017-Sep-25 14:00N 41°41' W 071°19'6 0.4
2017-Sep-25 00:58N 41°47' W 071°22'9 4.9
2017-Sep-24 23:03N 41°38' W 071°18'528.9
2017-Sep-24 22:53N 41°42' W 071°20'2 1.6
2017-Sep-24 21:53N 41°44' W 071°21'2 0.5
2017-Sep-24 16:55N 41°42' W 071°19'5 5.8
2017-Sep-24 15:58N 41°47' W 071°22'5 2.7
2017-Sep-24 13:58N 41°42' W 071°19'8 0.8
2017-Sep-24 03:48N 41°49' W 071°24'622.5
2017-Sep-24 03:30N 41°43' W 071°21'1223.6
2017-Sep-24 03:00N 41°31' W 071°20'1 2.3
2017-Sep-24 02:24N 41°30' W 071°21'1026.2
2017-Sep-24 02:00N 41°40' W 071°19'7 6.7
2017-Sep-24 00:59N 41°47' W 071°22'1420.9
2017-Sep-24 00:19N 41°33' W 071°20'4 3.2
2017-Sep-23 23:05N 41°37' W 071°18'532.9
2017-Sep-23 22:56N 41°42' W 071°19'6 6.3
2017-Sep-23 22:02N 41°47' W 071°22'120.4
2017-Sep-23 22:00N 41°46' W 071°22'5 2.4
2017-Sep-23 19:56N 41°42' W 071°19'  
Track history (hours):
 
Tides and Currents Weather Stations Pressure Air Temp Water Temp Dewpoint Dewpoint Depression Visibility Wind Speed Wind Dir Waves Ship Positions

Ocean State

Owner: New England Fast Ferry Company LLC, BOSTON, MA. More information available from US FCC via Universal Licensing System and Coast Guard Vessel Documentation Center.

Last reported at 2017-Oct-02 14:50 UTC. Time now 2017-Dec-12 16:15 UTC.
Position N 41°09' W 072°36'.
Warning: this ship's position is months out of date.

Length 21 m.

Type: Passenger vessel. MMSI: 366900190.

Date/timePositionNaut miles runAvg speedWind from/ knotsBaromVisibWave heightAir tempDewpointWater temp
2017-Oct-02 14:50N 41°09' W 072°36'823.5
2017-Oct-02 14:30N 41°11' W 072°26'5621.7
2017-Oct-02 11:57N 41°40' W 071°22'7 0.6
2017-Oct-02 00:58N 41°47' W 071°22'5 2.3
2017-Oct-01 22:51N 41°42' W 071°20'5 5.7
2017-Oct-01 21:59N 41°47' W 071°22'5 2.3
2017-Oct-01 19:52N 41°42' W 071°20'5 5.4
2017-Oct-01 18:57N 41°47' W 071°22'2 1.1
2017-Oct-01 16:50N 41°44' W 071°22'2 2.8
2017-Oct-01 15:58N 41°47' W 071°22'6 2.7
2017-Oct-01 13:56N 41°42' W 071°19'5 0.5
2017-Oct-01 03:44N 41°47' W 071°22'522.1
2017-Oct-01 03:30N 41°42' W 071°20'1 0.0
2017-Sep-30 01:54N 41°41' W 071°20'5 5.9
2017-Sep-30 00:58N 41°47' W 071°22'5 2.4
2017-Sep-29 22:54N 41°42' W 071°20'5 5.5
2017-Sep-29 22:01N 41°46' W 071°22'027.6
2017-Sep-29 22:00N 41°46' W 071°22'5 2.5
2017-Sep-29 19:57N 41°42' W 071°19'5 5.6
2017-Sep-29 19:01N 41°46' W 071°22'024.4
2017-Sep-29 19:00N 41°46' W 071°22'5 2.7
2017-Sep-29 17:03N 41°42' W 071°19'226.7
2017-Sep-29 16:58N 41°43' W 071°21'3 3.6
2017-Sep-29 16:01N 41°46' W 071°22'024.4
2017-Sep-29 16:00N 41°46' W 071°22'5 2.5
2017-Sep-29 14:00N 41°42' W 071°19'5 0.4
2017-Sep-29 01:00N 41°47' W 071°22'5 2.3
2017-Sep-28 22:53N 41°42' W 071°20'5 5.6
2017-Sep-28 22:01N 41°47' W 071°22'023.8
2017-Sep-28 22:00N 41°46' W 071°22'5 2.6
2017-Sep-28 19:59N 41°42' W 071°19'6 6.1
2017-Sep-28 19:03N 41°47' W 071°22'119.2
2017-Sep-28 19:00N 41°46' W 071°23'5 2.4
2017-Sep-28 17:00N 41°41' W 071°19'5 5.5
2017-Sep-28 16:02N 41°46' W 071°22'020.4
2017-Sep-28 16:00N 41°46' W 071°23'5 2.3
2017-Sep-28 13:57N 41°42' W 071°19'5 0.4
2017-Sep-28 00:58N 41°47' W 071°22'5 2.6
2017-Sep-27 22:55N 41°42' W 071°20'5 5.8
2017-Sep-27 22:01N 41°47' W 071°22'011.8
2017-Sep-27 22:00N 41°46' W 071°22'5 2.4
2017-Sep-27 19:56N 41°42' W 071°20'3 2.8
2017-Sep-27 18:53N 41°44' W 071°22'3 1.7
2017-Sep-27 16:55N 41°42' W 071°19'5 5.3
2017-Sep-27 15:55N 41°47' W 071°22'6 2.8
2017-Sep-27 13:55N 41°42' W 071°19'6 0.4
2017-Sep-27 01:01N 41°47' W 071°22'012.2
2017-Sep-27 01:00N 41°46' W 071°22'5 2.6
2017-Sep-26 22:57N 41°41' W 071°20'5 5.9
2017-Sep-26 22:01N 41°47' W 071°22'016.6
2017-Sep-26 22:00N 41°46' W 071°22'7 3.3
2017-Sep-26 20:00N 41°40' W 071°19'7 7.3
2017-Sep-26 19:00N 41°47' W 071°23'6 2.9
2017-Sep-26 16:56N 41°42' W 071°19'6 5.6
2017-Sep-26 15:57N 41°47' W 071°22'6 2.8
2017-Sep-26 13:57N 41°42' W 071°19'6 0.4
2017-Sep-26 00:58N 41°47' W 071°22'7 3.5
2017-Sep-25 22:58N 41°40' W 071°19'7 7.5
2017-Sep-25 22:02N 41°47' W 071°22'018.4
2017-Sep-25 22:00N 41°46' W 071°22'5 2.4
2017-Sep-25 19:57N 41°42' W 071°20'6 7.7
2017-Sep-25 19:07N 41°48' W 071°23'319.8
2017-Sep-25 18:59N 41°45' W 071°22'2 0.6
2017-Sep-25 16:01N 41°47' W 071°22'021.8
2017-Sep-25 16:00N 41°46' W 071°22'5 2.7
2017-Sep-25 14:00N 41°41' W 071°19'6 0.4
2017-Sep-25 00:58N 41°47' W 071°22'9 4.9
2017-Sep-24 23:03N 41°38' W 071°18'528.9
2017-Sep-24 22:53N 41°42' W 071°20'2 1.6
2017-Sep-24 21:53N 41°44' W 071°21'2 0.5
2017-Sep-24 16:55N 41°42' W 071°19'5 5.8
2017-Sep-24 15:58N 41°47' W 071°22'5 2.7
2017-Sep-24 13:58N 41°42' W 071°19'8 0.8
2017-Sep-24 03:48N 41°49' W 071°24'622.5
2017-Sep-24 03:30N 41°43' W 071°21'1223.6
2017-Sep-24 03:00N 41°31' W 071°20'1 2.3
2017-Sep-24 02:24N 41°30' W 071°21'1026.2
2017-Sep-24 02:00N 41°40' W 071°19'7 6.7
2017-Sep-24 00:59N 41°47' W 071°22'1420.9
2017-Sep-24 00:19N 41°33' W 071°20'4 3.2
2017-Sep-23 23:05N 41°37' W 071°18'532.9
2017-Sep-23 22:56N 41°42' W 071°19'6 6.3
2017-Sep-23 22:02N 41°47' W 071°22'120.4
2017-Sep-23 22:00N 41°46' W 071°22'5 2.4
2017-Sep-23 19:56N 41°42' W 071°19'  

Dump ship's entire track history